createdAt,value
2019-03-21T00:00:34.663Z,0.00
2019-03-21T00:01:34.699Z,0.00
2019-03-21T00:02:34.736Z,0.00
2019-03-21T00:03:34.770Z,0.00
2019-03-21T00:04:34.806Z,0.00
2019-03-21T00:05:34.843Z,0.00
2019-03-21T00:06:34.884Z,0.00
2019-03-21T00:07:34.916Z,0.00
2019-03-21T00:08:34.962Z,0.00
2019-03-21T00:09:35.047Z,0.00
2019-03-21T00:10:35.030Z,0.00
2019-03-21T00:11:35.066Z,0.00
2019-03-21T00:12:35.100Z,0.00
2019-03-21T00:13:35.134Z,0.00
2019-03-21T00:14:35.171Z,0.00
2019-03-21T00:15:35.259Z,0.00
2019-03-21T00:16:35.247Z,0.00
2019-03-21T00:17:35.288Z,0.00
2019-03-21T00:18:35.317Z,0.00
2019-03-21T00:19:35.353Z,0.00
2019-03-21T00:20:35.390Z,0.00
2019-03-21T00:21:35.426Z,0.00
2019-03-21T00:22:35.471Z,0.00
2019-03-21T00:23:35.499Z,0.00
2019-03-21T00:24:35.539Z,0.00
2019-03-21T00:25:35.582Z,0.00
2019-03-21T00:26:35.610Z,0.00
2019-03-21T00:27:35.646Z,0.00
2019-03-21T00:28:35.683Z,0.00
2019-03-21T00:29:35.777Z,0.00
2019-03-21T00:30:35.755Z,0.00
2019-03-21T00:31:35.795Z,0.00
2019-03-21T00:32:35.829Z,0.00
2019-03-21T00:33:35.864Z,0.00
2019-03-21T00:34:35.911Z,0.00
2019-03-21T00:35:38.422Z,0.00
2019-03-21T00:36:35.974Z,0.00
2019-03-21T00:37:36.012Z,0.00
2019-03-21T00:38:36.047Z,0.00
2019-03-21T00:39:36.090Z,0.00
2019-03-21T00:40:36.128Z,0.00
2019-03-21T00:41:36.200Z,0.00
2019-03-21T00:42:36.191Z,0.00
2019-03-21T00:43:36.227Z,0.00
2019-03-21T00:44:36.264Z,0.00
2019-03-21T00:45:36.301Z,0.00
2019-03-21T00:46:36.342Z,0.00
2019-03-21T00:47:36.371Z,0.00
2019-03-21T00:48:36.408Z,0.00
2019-03-21T00:49:36.444Z,0.00
2019-03-21T00:50:36.483Z,0.00
2019-03-21T00:51:36.517Z,0.00
2019-03-21T00:52:36.554Z,0.00
2019-03-21T00:53:36.591Z,0.00
2019-03-21T00:54:36.628Z,0.00
2019-03-21T00:55:36.663Z,0.00
2019-03-21T00:56:36.699Z,0.00
2019-03-21T00:57:36.737Z,0.00
2019-03-21T00:58:36.772Z,0.00
2019-03-21T00:59:36.807Z,0.00
2019-03-21T01:00:36.850Z,0.00
2019-03-21T01:01:36.891Z,0.00
2019-03-21T01:02:36.916Z,0.00
2019-03-21T01:03:36.958Z,0.00
2019-03-21T01:04:36.991Z,0.00
2019-03-21T01:05:37.025Z,0.00
2019-03-21T01:06:37.072Z,0.00
2019-03-21T01:07:37.099Z,0.00
2019-03-21T01:08:37.137Z,0.00
2019-03-21T01:09:37.179Z,0.00
2019-03-21T01:10:37.208Z,0.00
2019-03-21T01:11:37.244Z,0.00
2019-03-21T01:12:37.279Z,0.00
2019-03-21T01:13:37.315Z,0.00
2019-03-21T01:14:37.364Z,0.00
2019-03-21T01:15:37.386Z,0.00
2019-03-21T01:16:37.424Z,0.00
2019-03-21T01:17:37.457Z,0.00
2019-03-21T01:18:37.493Z,0.00
2019-03-21T01:19:37.538Z,0.00
2019-03-21T01:20:37.574Z,0.00
2019-03-21T01:21:37.602Z,0.00
2019-03-21T01:22:37.638Z,0.00
2019-03-21T01:23:37.675Z,0.00
2019-03-21T01:24:37.710Z,0.00
2019-03-21T01:25:37.747Z,0.00
2019-03-21T01:26:37.783Z,0.00
2019-03-21T01:27:37.820Z,0.00
2019-03-21T01:28:37.854Z,0.00
2019-03-21T01:29:37.896Z,0.00
2019-03-21T01:30:37.930Z,0.00
2019-03-21T01:31:37.967Z,0.00
2019-03-21T01:32:38.002Z,0.00
2019-03-21T01:33:38.035Z,0.00
2019-03-21T01:34:38.081Z,0.00
2019-03-21T01:35:38.107Z,0.00
2019-03-21T01:36:38.144Z,0.00
2019-03-21T01:37:38.186Z,0.00
2019-03-21T01:38:38.215Z,0.00
2019-03-21T01:39:38.252Z,0.00
2019-03-21T01:40:38.288Z,0.00
2019-03-21T01:41:38.325Z,0.00
2019-03-21T01:42:38.359Z,0.00
2019-03-21T01:43:38.394Z,0.00
2019-03-21T01:44:41.263Z,0.00
2019-03-21T01:45:38.468Z,0.00
2019-03-21T01:46:38.503Z,0.00
2019-03-21T01:47:38.539Z,0.00
2019-03-21T01:48:38.573Z,0.00
2019-03-21T01:49:38.609Z,0.00
2019-03-21T01:50:38.646Z,0.00
2019-03-21T01:51:38.680Z,0.00
2019-03-21T01:52:38.726Z,0.00
2019-03-21T01:53:38.754Z,0.00
2019-03-21T01:54:38.790Z,0.00
2019-03-21T01:55:38.823Z,0.00
2019-03-21T01:56:38.860Z,0.00
2019-03-21T01:57:38.900Z,0.00
2019-03-21T01:58:38.932Z,0.00
2019-03-21T01:59:38.974Z,0.00
2019-03-21T02:00:39.004Z,0.00
2019-03-21T02:01:39.041Z,0.00
2019-03-21T02:02:39.077Z,0.00
2019-03-21T02:03:39.111Z,0.00
2019-03-21T02:04:39.150Z,0.00
2019-03-21T02:05:39.183Z,0.00
2019-03-21T02:06:39.221Z,0.00
2019-03-21T02:07:39.262Z,0.00
2019-03-21T02:08:39.300Z,0.00
2019-03-21T02:09:39.328Z,0.00
2019-03-21T02:10:39.364Z,0.00
2019-03-21T02:11:39.399Z,0.00
2019-03-21T02:12:39.436Z,0.00
2019-03-21T02:13:39.471Z,0.00
2019-03-21T02:14:39.508Z,0.00
2019-03-21T02:15:40.857Z,0.00
2019-03-21T02:16:39.577Z,0.00
2019-03-21T02:17:39.614Z,0.00
2019-03-21T02:18:39.650Z,0.00
2019-03-21T02:19:39.686Z,0.00
2019-03-21T02:20:39.721Z,0.00
2019-03-21T02:21:39.757Z,0.00
2019-03-21T02:22:39.795Z,0.00
2019-03-21T02:23:39.831Z,0.00
2019-03-21T02:24:39.871Z,0.00
2019-03-21T02:25:39.900Z,0.00
2019-03-21T02:26:39.937Z,0.00
2019-03-21T02:27:39.970Z,0.00
2019-03-21T02:28:40.016Z,0.00
2019-03-21T02:29:40.045Z,0.00
2019-03-21T02:30:40.086Z,0.00
2019-03-21T02:31:40.116Z,0.00
2019-03-21T02:32:40.154Z,0.00
2019-03-21T02:33:40.186Z,0.00
2019-03-21T02:34:40.221Z,0.00
2019-03-21T02:35:40.260Z,0.00
2019-03-21T02:36:40.301Z,0.00
2019-03-21T02:37:40.331Z,0.00
2019-03-21T02:38:40.367Z,0.00
2019-03-21T02:39:40.422Z,0.00
2019-03-21T02:40:40.439Z,0.00
2019-03-21T02:41:40.564Z,0.00
2019-03-21T02:42:40.508Z,0.00
2019-03-21T02:43:40.543Z,0.00
2019-03-21T02:44:40.714Z,0.00
2019-03-21T02:45:40.623Z,0.00
2019-03-21T02:46:40.658Z,0.00
2019-03-21T02:47:40.694Z,0.00
2019-03-21T02:48:40.723Z,0.00
2019-03-21T02:49:40.767Z,0.00
2019-03-21T02:50:40.793Z,0.00
2019-03-21T02:51:40.832Z,0.00
2019-03-21T02:52:40.866Z,0.00
2019-03-21T02:53:40.902Z,0.00
2019-03-21T02:54:40.941Z,0.00
2019-03-21T02:55:40.971Z,0.00
2019-03-21T02:56:41.010Z,0.00
2019-03-21T02:57:41.042Z,0.00
2019-03-21T02:58:41.079Z,0.00
2019-03-21T02:59:41.122Z,0.00
2019-03-21T03:00:41.150Z,0.00
2019-03-21T03:01:41.186Z,0.00
2019-03-21T03:02:41.221Z,0.00
2019-03-21T03:03:41.255Z,0.00
2019-03-21T03:04:41.291Z,0.00
2019-03-21T03:05:41.328Z,0.00
2019-03-21T03:06:41.364Z,0.00
2019-03-21T03:07:41.400Z,0.00
2019-03-21T03:08:41.433Z,0.00
2019-03-21T03:09:41.492Z,0.00
2019-03-21T03:10:41.515Z,0.00
2019-03-21T03:11:41.547Z,0.00
2019-03-21T03:12:41.581Z,0.00
2019-03-21T03:13:41.613Z,0.00
2019-03-21T03:14:41.657Z,0.00
2019-03-21T03:15:41.686Z,0.00
2019-03-21T03:16:41.719Z,0.00
2019-03-21T03:17:41.757Z,0.00
2019-03-21T03:18:41.801Z,0.00
2019-03-21T03:19:41.838Z,0.00
2019-03-21T03:20:41.861Z,0.00
2019-03-21T03:21:41.897Z,0.00
2019-03-21T03:22:41.933Z,0.00
2019-03-21T03:23:41.969Z,0.00
2019-03-21T03:24:42.007Z,0.00
2019-03-21T03:25:42.043Z,0.00
2019-03-21T03:26:42.075Z,0.00
2019-03-21T03:27:42.111Z,0.00
2019-03-21T03:28:42.151Z,0.00
2019-03-21T03:29:42.189Z,0.00
2019-03-21T03:30:42.221Z,0.00
2019-03-21T03:31:42.251Z,0.00
2019-03-21T03:32:42.290Z,0.00
2019-03-21T03:33:42.326Z,0.00
2019-03-21T03:34:42.366Z,0.00
2019-03-21T03:35:42.393Z,0.00
2019-03-21T03:36:42.438Z,0.00
2019-03-21T03:37:42.478Z,0.00
2019-03-21T03:38:42.511Z,0.00
2019-03-21T03:39:42.537Z,0.00
2019-03-21T03:40:42.575Z,0.00
2019-03-21T03:41:42.610Z,0.00
2019-03-21T03:42:42.644Z,0.00
2019-03-21T03:43:42.677Z,0.00
2019-03-21T03:44:42.716Z,0.00
2019-03-21T03:45:42.750Z,0.00
2019-03-21T03:46:42.786Z,0.00
2019-03-21T03:47:42.824Z,0.00
2019-03-21T03:48:42.864Z,0.00
2019-03-21T03:49:42.901Z,0.00
2019-03-21T03:50:42.930Z,0.00
2019-03-21T03:51:42.962Z,0.00
2019-03-21T03:52:42.998Z,0.00
2019-03-21T03:53:43.035Z,0.00
2019-03-21T03:54:43.075Z,0.00
2019-03-21T03:55:43.112Z,0.00
2019-03-21T03:56:43.140Z,0.00
2019-03-21T03:57:43.176Z,0.00
2019-03-21T03:58:43.214Z,0.00
2019-03-21T03:59:43.254Z,0.00
2019-03-21T04:00:43.282Z,0.00
2019-03-21T04:01:43.329Z,0.00
2019-03-21T04:02:43.385Z,0.00
2019-03-21T04:03:43.396Z,0.00
2019-03-21T04:04:43.432Z,0.00
2019-03-21T04:05:43.465Z,0.00
2019-03-21T04:06:43.494Z,0.00
2019-03-21T04:07:43.528Z,0.00
2019-03-21T04:08:43.564Z,0.00
2019-03-21T04:09:43.629Z,0.00
2019-03-21T04:10:43.637Z,0.00
2019-03-21T04:11:43.681Z,0.00
2019-03-21T04:12:43.708Z,0.00
2019-03-21T04:13:43.744Z,0.00
2019-03-21T04:14:43.777Z,0.00
2019-03-21T04:15:52.511Z,0.00
2019-03-21T04:16:43.850Z,0.00
2019-03-21T04:17:43.882Z,0.00
2019-03-21T04:18:43.926Z,0.00
2019-03-21T04:19:43.954Z,0.00
2019-03-21T04:20:43.991Z,0.00
2019-03-21T04:21:44.025Z,0.00
2019-03-21T04:22:44.077Z,0.00
2019-03-21T04:23:44.112Z,0.00
2019-03-21T04:24:44.132Z,0.00
2019-03-21T04:25:44.167Z,0.00
2019-03-21T04:26:44.204Z,0.00
2019-03-21T04:27:44.237Z,0.00
2019-03-21T04:28:44.281Z,0.00
2019-03-21T04:29:44.311Z,0.00
2019-03-21T04:30:44.345Z,0.00
2019-03-21T04:31:44.378Z,0.00
2019-03-21T04:32:44.413Z,0.00
2019-03-21T04:33:44.452Z,0.00
2019-03-21T04:34:44.491Z,0.00
2019-03-21T04:35:44.520Z,0.00
2019-03-21T04:36:44.565Z,0.00
2019-03-21T04:37:44.598Z,0.00
2019-03-21T04:38:44.627Z,0.00
2019-03-21T04:39:44.663Z,0.00
2019-03-21T04:40:44.701Z,0.00
2019-03-21T04:41:44.735Z,0.00
2019-03-21T04:42:44.768Z,0.00
2019-03-21T04:43:44.802Z,0.00
2019-03-21T04:44:44.837Z,0.00
2019-03-21T04:45:44.873Z,0.00
2019-03-21T04:46:44.911Z,0.00
2019-03-21T04:47:44.942Z,0.00
2019-03-21T04:48:44.982Z,0.00
2019-03-21T04:49:45.037Z,0.00
2019-03-21T04:50:45.050Z,4.00
2019-03-21T04:51:45.085Z,4.00
2019-03-21T04:52:45.121Z,4.00
2019-03-21T04:53:45.156Z,4.00
2019-03-21T04:54:45.198Z,4.00
2019-03-21T04:55:45.276Z,8.00
2019-03-21T04:56:45.263Z,4.00
2019-03-21T04:57:45.297Z,4.00
2019-03-21T04:58:45.338Z,8.00
2019-03-21T04:59:45.368Z,12.00
2019-03-21T05:00:45.411Z,12.00
2019-03-21T05:01:45.449Z,12.00
2019-03-21T05:02:45.475Z,20.00
2019-03-21T05:03:45.510Z,20.00
2019-03-21T05:04:45.545Z,24.00
2019-03-21T05:05:45.593Z,32.00
2019-03-21T05:06:45.619Z,40.00
2019-03-21T05:07:45.651Z,44.00
2019-03-21T05:08:45.686Z,52.00
2019-03-21T05:09:45.721Z,64.00
2019-03-21T05:10:45.756Z,72.00
2019-03-21T05:11:45.791Z,84.00
2019-03-21T05:12:45.827Z,96.00
2019-03-21T05:13:45.861Z,112.00
2019-03-21T05:14:45.898Z,128.00
2019-03-21T05:15:45.931Z,144.00
2019-03-21T05:16:45.966Z,168.00
2019-03-21T05:17:46.002Z,192.00
2019-03-21T05:18:46.038Z,220.00
2019-03-21T05:19:46.072Z,248.00
2019-03-21T05:20:46.107Z,272.00
2019-03-21T05:21:46.142Z,304.00
2019-03-21T05:22:46.179Z,336.00
2019-03-21T05:23:46.213Z,364.00
2019-03-21T05:24:46.249Z,400.00
2019-03-21T05:25:46.287Z,436.00
2019-03-21T05:26:46.320Z,480.00
2019-03-21T05:27:46.354Z,524.00
2019-03-21T05:28:46.393Z,572.00
2019-03-21T05:29:46.423Z,624.00
2019-03-21T05:30:46.459Z,672.00
2019-03-21T05:31:46.494Z,728.00
2019-03-21T05:32:46.534Z,780.00
2019-03-21T05:33:46.573Z,836.00
2019-03-21T05:34:46.602Z,888.00
2019-03-21T05:35:46.637Z,944.00
2019-03-21T05:36:46.672Z,1004.00
2019-03-21T05:37:46.707Z,1064.00
2019-03-21T05:38:46.751Z,1128.00
2019-03-21T05:39:46.776Z,1192.00
2019-03-21T05:40:46.822Z,1256.00
2019-03-21T05:41:46.849Z,1320.00
2019-03-21T05:42:46.885Z,1384.00
2019-03-21T05:43:46.918Z,1444.00
2019-03-21T05:44:46.955Z,1512.00
2019-03-21T05:45:46.991Z,1576.00
2019-03-21T05:46:47.027Z,1640.00
2019-03-21T05:47:47.076Z,1696.00
2019-03-21T05:48:47.094Z,1756.00
2019-03-21T05:49:47.138Z,1812.00
2019-03-21T05:50:47.168Z,1876.00
2019-03-21T05:51:47.199Z,1936.00
2019-03-21T05:52:47.243Z,1992.00
2019-03-21T05:53:47.270Z,2040.00
2019-03-21T05:54:47.305Z,2096.00
2019-03-21T05:55:47.347Z,2148.00
2019-03-21T05:56:47.379Z,2192.00
2019-03-21T05:57:47.424Z,2216.00
2019-03-21T05:58:47.449Z,2236.00
2019-03-21T05:59:47.491Z,2256.00
2019-03-21T06:00:47.521Z,2292.00
2019-03-21T06:01:47.564Z,2348.00
2019-03-21T06:02:47.595Z,2416.00
2019-03-21T06:03:47.624Z,2488.00
2019-03-21T06:04:47.660Z,2560.00
2019-03-21T06:05:47.695Z,2624.00
2019-03-21T06:06:47.733Z,2672.00
2019-03-21T06:07:47.770Z,2708.00
2019-03-21T06:08:47.801Z,2736.00
2019-03-21T06:09:47.840Z,2764.00
2019-03-21T06:10:47.877Z,2796.00
2019-03-21T06:11:47.915Z,2832.00
2019-03-21T06:12:47.947Z,2876.00
2019-03-21T06:13:47.979Z,2920.00
2019-03-21T06:14:48.022Z,2976.00
2019-03-21T06:15:48.051Z,3016.00
2019-03-21T06:16:48.096Z,3056.00
2019-03-21T06:17:48.121Z,3096.00
2019-03-21T06:18:48.170Z,3144.00
2019-03-21T06:19:48.192Z,3184.00
2019-03-21T06:20:48.228Z,3224.00
2019-03-21T06:21:48.267Z,3240.00
2019-03-21T06:22:48.297Z,3252.00
2019-03-21T06:23:48.332Z,3276.00
2019-03-21T06:24:48.379Z,3316.00
2019-03-21T06:25:48.411Z,3352.00
2019-03-21T06:26:50.370Z,3400.00
2019-03-21T06:27:48.475Z,3448.00
2019-03-21T06:28:48.509Z,3472.00
2019-03-21T06:29:48.546Z,3496.00
2019-03-21T06:30:48.583Z,3508.00
2019-03-21T06:31:48.616Z,3532.00
2019-03-21T06:32:48.661Z,3548.00
2019-03-21T06:33:48.687Z,3580.00
2019-03-21T06:34:48.725Z,3612.00
2019-03-21T06:35:48.858Z,3636.00
2019-03-21T06:36:48.794Z,3656.00
2019-03-21T06:37:48.829Z,3680.00
2019-03-21T06:38:48.880Z,3700.00
2019-03-21T06:39:48.901Z,3708.00
2019-03-21T06:40:48.936Z,3692.00
2019-03-21T06:41:48.971Z,3700.00
2019-03-21T06:42:49.008Z,3748.00
2019-03-21T06:43:49.042Z,3820.00
2019-03-21T06:44:49.079Z,3812.00
2019-03-21T06:45:49.118Z,3944.00
2019-03-21T06:46:49.926Z,4044.00
2019-03-21T06:47:49.187Z,4100.00
2019-03-21T06:48:49.230Z,4140.00
2019-03-21T06:49:49.258Z,4164.00
2019-03-21T06:50:49.296Z,4180.00
2019-03-21T06:51:49.328Z,4188.00
2019-03-21T06:52:49.366Z,4188.00
2019-03-21T06:53:49.403Z,4200.00
2019-03-21T06:54:49.438Z,4204.00
2019-03-21T06:55:49.474Z,4200.00
2019-03-21T06:56:49.525Z,4180.00
2019-03-21T06:57:49.544Z,4172.00
2019-03-21T06:58:49.589Z,4184.00
2019-03-21T06:59:49.620Z,4192.00
2019-03-21T07:00:49.652Z,4200.00
2019-03-21T07:01:49.691Z,4212.00
2019-03-21T07:02:49.725Z,4228.00
2019-03-21T07:03:49.766Z,4240.00
2019-03-21T07:04:49.795Z,4252.00
2019-03-21T07:05:49.835Z,4248.00
2019-03-21T07:06:49.868Z,4252.00
2019-03-21T07:07:49.904Z,4240.00
2019-03-21T07:08:49.942Z,4244.00
2019-03-21T07:09:49.979Z,4244.00
2019-03-21T07:10:50.012Z,4224.00
2019-03-21T07:11:50.047Z,4188.00
2019-03-21T07:12:50.083Z,4192.00
2019-03-21T07:13:50.123Z,4180.00
2019-03-21T07:14:50.156Z,4184.00
2019-03-21T07:15:50.192Z,4184.00
2019-03-21T07:17:00.004Z,4164.00
2019-03-21T07:17:50.267Z,4124.00
2019-03-21T07:18:50.301Z,4056.00
2019-03-21T07:19:50.338Z,4020.00
2019-03-21T07:20:50.379Z,4100.00
2019-03-21T07:21:50.413Z,4176.00
2019-03-21T07:22:50.448Z,4184.00
2019-03-21T07:23:50.481Z,4172.00
2019-03-21T07:24:50.518Z,4192.00
2019-03-21T07:25:50.558Z,4196.00
2019-03-21T07:26:50.594Z,4184.00
2019-03-21T07:27:50.626Z,4176.00
2019-03-21T07:28:50.664Z,4160.00
2019-03-21T07:29:50.700Z,4148.00
2019-03-21T07:30:50.736Z,4156.00
2019-03-21T07:31:50.772Z,4148.00
2019-03-21T07:32:50.816Z,4148.00
2019-03-21T07:33:50.853Z,4144.00
2019-03-21T07:34:50.882Z,4148.00
2019-03-21T07:35:50.929Z,4148.00
2019-03-21T07:36:50.956Z,4152.00
2019-03-21T07:37:50.999Z,4160.00
2019-03-21T07:38:51.030Z,4172.00
2019-03-21T07:39:51.064Z,4168.00
2019-03-21T07:40:51.102Z,4160.00
2019-03-21T07:41:51.162Z,4152.00
2019-03-21T07:42:51.233Z,4140.00
2019-03-21T07:43:51.211Z,4124.00
2019-03-21T07:44:51.247Z,4108.00
2019-03-21T07:45:51.283Z,4104.00
2019-03-21T07:46:51.327Z,4096.00
2019-03-21T07:47:51.379Z,4076.00
2019-03-21T07:48:51.394Z,4076.00
2019-03-21T07:49:51.438Z,4096.00
2019-03-21T07:50:51.478Z,4108.00
2019-03-21T07:51:51.512Z,4120.00
2019-03-21T07:52:51.541Z,4124.00
2019-03-21T07:53:51.579Z,4120.00
2019-03-21T07:54:51.624Z,4124.00
2019-03-21T07:55:51.653Z,4128.00
2019-03-21T07:56:51.688Z,4128.00
2019-03-21T07:57:51.727Z,4132.00
2019-03-21T07:58:51.763Z,4128.00
2019-03-21T07:59:51.803Z,4132.00
2019-03-21T08:00:51.835Z,4124.00
2019-03-21T08:01:51.874Z,4124.00
2019-03-21T08:02:51.913Z,4124.00
2019-03-21T08:03:51.946Z,4132.00
2019-03-21T08:04:51.987Z,4136.00
2019-03-21T08:05:52.037Z,4140.00
2019-03-21T08:06:52.065Z,4144.00
2019-03-21T08:07:52.100Z,4144.00
2019-03-21T08:08:52.131Z,4148.00
2019-03-21T08:09:52.177Z,4144.00
2019-03-21T08:10:52.210Z,4148.00
2019-03-21T08:11:52.243Z,4152.00
2019-03-21T08:12:52.279Z,4152.00
2019-03-21T08:13:52.325Z,4156.00
2019-03-21T08:14:52.354Z,4164.00
2019-03-21T08:15:52.400Z,4168.00
2019-03-21T08:16:52.428Z,4168.00
2019-03-21T08:17:52.469Z,4164.00
2019-03-21T08:18:52.503Z,4172.00
2019-03-21T08:19:52.554Z,4172.00
2019-03-21T08:20:58.380Z,4176.00
2019-03-21T08:21:52.615Z,4184.00
2019-03-21T08:22:52.711Z,4184.00
2019-03-21T08:23:52.689Z,4180.00
2019-03-21T08:24:52.727Z,4180.00
2019-03-21T08:25:52.763Z,4192.00
2019-03-21T08:26:52.802Z,4196.00
2019-03-21T08:27:52.837Z,4208.00
2019-03-21T08:28:52.895Z,4212.00
2019-03-21T08:29:52.921Z,4224.00
2019-03-21T08:30:52.959Z,4228.00
2019-03-21T08:31:52.987Z,4236.00
2019-03-21T08:32:53.031Z,4248.00
2019-03-21T08:33:53.062Z,4248.00
2019-03-21T08:34:53.098Z,4256.00
2019-03-21T08:35:53.135Z,4264.00
2019-03-21T08:36:53.172Z,4272.00
2019-03-21T08:37:53.216Z,4280.00
2019-03-21T08:38:53.248Z,4288.00
2019-03-21T08:39:53.285Z,4296.00
2019-03-21T08:40:53.326Z,4300.00
2019-03-21T08:41:53.368Z,4312.00
2019-03-21T08:42:53.402Z,4324.00
2019-03-21T08:43:53.437Z,4332.00
2019-03-21T08:44:53.472Z,4348.00
2019-03-21T08:45:53.509Z,4360.00
2019-03-21T08:46:53.556Z,4384.00
2019-03-21T08:47:53.584Z,4396.00
2019-03-21T08:48:53.624Z,4396.00
2019-03-21T08:49:53.658Z,4404.00
2019-03-21T08:50:53.704Z,4408.00
2019-03-21T08:51:53.941Z,4420.00
2019-03-21T08:52:53.773Z,4428.00
2019-03-21T08:53:53.809Z,4436.00
2019-03-21T08:54:53.855Z,4448.00
2019-03-21T08:55:53.887Z,4460.00
2019-03-21T08:56:53.923Z,4464.00
2019-03-21T08:57:53.964Z,4464.00
2019-03-21T08:58:54.002Z,4472.00
2019-03-21T08:59:54.035Z,4476.00
2019-03-21T09:00:54.085Z,4484.00
2019-03-21T09:01:54.110Z,4484.00
2019-03-21T09:02:54.155Z,4488.00
2019-03-21T09:03:54.188Z,4484.00
2019-03-21T09:04:54.224Z,4484.00
2019-03-21T09:05:54.264Z,4484.00
2019-03-21T09:06:54.301Z,4484.00
2019-03-21T09:07:54.340Z,4484.00
2019-03-21T09:08:54.384Z,4480.00
2019-03-21T09:09:54.425Z,4480.00
2019-03-21T09:10:54.453Z,4468.00
2019-03-21T09:11:54.490Z,4464.00
2019-03-21T09:12:54.529Z,4460.00
2019-03-21T09:13:54.567Z,4452.00
2019-03-21T09:14:54.605Z,4448.00
2019-03-21T09:15:54.654Z,4436.00
2019-03-21T09:16:54.689Z,4432.00
2019-03-21T09:17:55.566Z,4416.00
2019-03-21T09:18:54.758Z,4396.00
2019-03-21T09:19:54.798Z,4376.00
2019-03-21T09:20:54.838Z,4368.00
2019-03-21T09:21:54.882Z,4352.00
2019-03-21T09:22:54.914Z,4344.00
2019-03-21T09:23:54.957Z,4336.00
2019-03-21T09:24:54.991Z,4328.00
2019-03-21T09:25:55.029Z,4316.00
2019-03-21T09:26:55.074Z,4308.00
2019-03-21T09:28:02.656Z,4296.00
2019-03-21T09:28:55.148Z,4284.00
2019-03-21T09:29:55.447Z,4268.00
2019-03-21T09:30:56.534Z,4256.00
2019-03-21T09:31:55.261Z,4248.00
2019-03-21T09:32:55.301Z,4240.00
2019-03-21T09:33:55.341Z,4228.00
2019-03-21T09:34:55.378Z,4224.00
2019-03-21T09:35:55.414Z,4212.00
2019-03-21T09:36:55.452Z,4196.00
2019-03-21T09:37:55.557Z,4180.00
2019-03-21T09:38:55.539Z,4176.00
2019-03-21T09:39:55.585Z,4164.00
2019-03-21T09:40:55.616Z,4148.00
2019-03-21T09:41:55.647Z,4144.00
2019-03-21T09:42:55.687Z,4136.00
2019-03-21T09:43:55.726Z,4128.00
2019-03-21T09:44:55.765Z,4132.00
2019-03-21T09:45:55.802Z,4136.00
2019-03-21T09:46:55.844Z,4140.00
2019-03-21T09:47:55.882Z,4140.00
2019-03-21T09:48:55.925Z,4140.00
2019-03-21T09:49:55.966Z,4132.00
2019-03-21T09:50:56.000Z,4136.00
2019-03-21T09:51:56.047Z,4132.00
2019-03-21T09:52:56.078Z,4128.00
2019-03-21T09:53:56.117Z,4120.00
2019-03-21T09:54:56.173Z,4116.00
2019-03-21T09:55:56.197Z,4112.00
2019-03-21T09:56:56.244Z,4112.00
2019-03-21T09:57:56.275Z,4108.00
2019-03-21T09:58:56.332Z,4108.00
2019-03-21T09:59:56.354Z,4112.00
2019-03-21T10:00:56.398Z,4116.00
2019-03-21T10:01:56.433Z,4116.00
2019-03-21T10:02:56.475Z,4124.00
2019-03-21T10:03:56.533Z,4128.00
2019-03-21T10:04:56.551Z,4136.00
2019-03-21T10:05:56.605Z,4140.00
2019-03-21T10:06:56.649Z,4140.00
2019-03-21T10:07:59.339Z,4152.00
2019-03-21T10:08:56.713Z,4156.00
2019-03-21T10:09:56.756Z,4152.00
2019-03-21T10:10:56.810Z,4148.00
2019-03-21T10:11:56.831Z,4144.00
2019-03-21T10:12:56.877Z,4136.00
2019-03-21T10:13:56.915Z,4128.00
2019-03-21T10:14:56.968Z,4128.00
2019-03-21T10:15:57.004Z,4128.00
2019-03-21T10:16:57.032Z,4120.00
2019-03-21T10:17:57.123Z,4120.00
2019-03-21T10:18:57.199Z,4116.00
2019-03-21T10:19:57.151Z,4108.00
2019-03-21T10:20:57.191Z,4104.00
2019-03-21T10:21:57.240Z,4100.00
2019-03-21T10:22:57.280Z,4096.00
2019-03-21T10:23:57.330Z,4096.00
2019-03-21T10:24:57.353Z,4096.00
2019-03-21T10:25:57.391Z,4096.00
2019-03-21T10:26:57.432Z,4096.00
2019-03-21T10:27:57.514Z,4092.00
2019-03-21T10:28:57.514Z,4088.00
2019-03-21T10:29:57.562Z,4088.00
2019-03-21T10:30:57.595Z,4092.00
2019-03-21T10:31:57.643Z,4092.00
2019-03-21T10:32:57.675Z,4088.00
2019-03-21T10:33:57.714Z,4092.00
2019-03-21T10:34:57.758Z,4088.00
2019-03-21T10:35:57.794Z,4092.00
2019-03-21T10:36:57.835Z,4096.00
2019-03-21T10:37:57.875Z,4100.00
2019-03-21T10:38:57.924Z,4104.00
2019-03-21T10:39:57.956Z,4100.00
2019-03-21T10:40:57.997Z,4096.00
2019-03-21T10:41:58.046Z,4100.00
2019-03-21T10:42:58.089Z,4104.00
2019-03-21T10:43:58.146Z,4100.00
2019-03-21T10:44:58.162Z,4104.00
2019-03-21T10:45:58.201Z,4104.00
2019-03-21T10:46:58.259Z,4108.00
2019-03-21T10:47:58.283Z,4108.00
2019-03-21T10:48:58.337Z,4108.00
2019-03-21T10:49:58.374Z,4108.00
2019-03-21T10:50:58.413Z,4100.00
2019-03-21T10:51:58.451Z,4096.00
2019-03-21T10:52:58.486Z,4096.00
2019-03-21T10:53:58.576Z,4092.00
2019-03-21T10:54:58.577Z,4088.00
2019-03-21T10:55:58.615Z,4088.00
2019-03-21T10:56:58.659Z,4088.00
2019-03-21T10:57:58.745Z,4088.00
2019-03-21T10:58:58.733Z,4088.00
2019-03-21T11:00:01.488Z,4088.00
2019-03-21T11:00:58.822Z,4084.00
2019-03-21T11:02:07.291Z,4084.00
2019-03-21T11:02:58.934Z,4084.00
2019-03-21T11:03:58.936Z,4080.00
2019-03-21T11:04:59.031Z,4080.00
2019-03-21T11:05:59.027Z,4072.00
2019-03-21T11:06:59.064Z,4068.00
2019-03-21T11:07:59.103Z,4068.00
2019-03-21T11:08:59.145Z,4068.00
2019-03-21T11:09:59.184Z,4064.00
2019-03-21T11:10:59.228Z,4056.00
2019-03-21T11:11:59.273Z,4060.00
2019-03-21T11:12:59.316Z,4060.00
2019-03-21T11:13:59.350Z,4068.00
2019-03-21T11:14:59.393Z,4064.00
2019-03-21T11:15:59.445Z,4068.00
2019-03-21T11:16:59.478Z,4068.00
2019-03-21T11:17:59.529Z,4068.00
2019-03-21T11:18:59.563Z,4068.00
2019-03-21T11:19:59.599Z,4064.00
2019-03-21T11:20:59.644Z,4068.00
2019-03-21T11:22:06.299Z,4072.00
2019-03-21T11:22:59.739Z,4072.00
2019-03-21T11:23:59.778Z,4068.00
2019-03-21T11:24:59.813Z,4068.00
2019-03-21T11:25:59.854Z,4068.00
2019-03-21T11:26:59.896Z,4064.00
2019-03-21T11:27:59.939Z,4068.00
2019-03-21T11:28:59.974Z,4068.00
2019-03-21T11:30:00.019Z,4064.00
2019-03-21T11:31:00.062Z,4064.00
2019-03-21T11:32:00.101Z,4064.00
2019-03-21T11:33:00.142Z,4064.00
2019-03-21T11:34:00.184Z,4064.00
2019-03-21T11:35:00.259Z,4064.00
2019-03-21T11:36:00.268Z,4064.00
2019-03-21T11:37:00.313Z,4060.00
2019-03-21T11:38:00.352Z,4060.00
2019-03-21T11:39:00.405Z,4052.00
2019-03-21T11:40:00.434Z,4056.00
2019-03-21T11:41:00.475Z,4052.00
2019-03-21T11:42:00.525Z,4052.00
2019-03-21T11:43:00.561Z,4052.00
2019-03-21T11:44:00.632Z,4044.00
2019-03-21T11:45:00.655Z,4044.00
2019-03-21T11:46:00.713Z,4044.00
2019-03-21T11:47:00.729Z,4044.00
2019-03-21T11:48:00.779Z,4048.00
2019-03-21T11:49:00.828Z,4048.00
2019-03-21T11:50:00.854Z,4048.00
2019-03-21T11:51:00.910Z,4044.00
2019-03-21T11:52:01.109Z,4048.00
2019-03-21T11:53:00.980Z,4056.00
2019-03-21T11:54:01.022Z,4060.00
2019-03-21T11:55:01.073Z,4064.00
2019-03-21T11:56:01.107Z,4072.00
2019-03-21T11:57:01.150Z,4076.00
2019-03-21T11:58:01.199Z,4076.00
2019-03-21T11:59:01.285Z,4084.00
2019-03-21T12:00:01.275Z,4092.00
2019-03-21T12:01:01.330Z,4096.00
2019-03-21T12:02:01.363Z,4104.00
2019-03-21T12:03:04.035Z,4112.00
2019-03-21T12:04:01.452Z,4120.00
2019-03-21T12:05:01.502Z,4124.00
2019-03-21T12:06:01.530Z,4124.00
2019-03-21T12:07:01.574Z,4140.00
2019-03-21T12:08:01.620Z,4148.00
2019-03-21T12:09:01.655Z,4152.00
2019-03-21T12:10:01.708Z,4156.00
2019-03-21T12:11:01.761Z,4156.00
2019-03-21T12:12:01.785Z,4156.00
2019-03-21T12:13:01.830Z,4152.00
2019-03-21T12:14:01.870Z,4156.00
2019-03-21T12:15:01.912Z,4152.00
2019-03-21T12:16:01.955Z,4152.00
2019-03-21T12:17:02.000Z,4148.00
2019-03-21T12:18:02.043Z,4140.00
2019-03-21T12:19:02.081Z,4148.00
2019-03-21T12:20:02.135Z,4152.00
2019-03-21T12:21:02.168Z,4164.00
2019-03-21T12:22:02.209Z,4168.00
2019-03-21T12:23:02.320Z,4172.00
2019-03-21T12:24:02.293Z,4176.00
2019-03-21T12:25:02.339Z,4172.00
2019-03-21T12:26:02.394Z,4168.00
2019-03-21T12:27:02.432Z,4164.00
2019-03-21T12:28:02.473Z,4180.00
2019-03-21T12:29:02.520Z,4192.00
2019-03-21T12:30:02.556Z,4208.00
2019-03-21T12:31:02.595Z,4216.00
2019-03-21T12:32:02.685Z,4224.00
2019-03-21T12:33:02.676Z,4236.00
2019-03-21T12:34:02.719Z,4244.00
2019-03-21T12:35:02.771Z,4252.00